sensor_id;sensor_type;location;lat;lon;timestamp;P1;durP1;ratioP1;P2;durP2;ratioP2
26512;SDS011;14186;53.822;10.152;2023-03-13T00:01:49;33.70;;;9.52;;
26512;SDS011;14186;53.822;10.152;2023-03-13T00:06:49;32.17;;;9.80;;
26512;SDS011;14186;53.822;10.152;2023-03-13T00:11:50;28.33;;;8.95;;
26512;SDS011;14186;53.822;10.152;2023-03-13T00:16:51;30.70;;;9.63;;
26512;SDS011;14186;53.822;10.152;2023-03-13T00:21:51;34.35;;;8.70;;
26512;SDS011;14186;53.822;10.152;2023-03-13T00:26:52;27.45;;;7.68;;
26512;SDS011;14186;53.822;10.152;2023-03-13T00:31:53;28.23;;;7.45;;
26512;SDS011;14186;53.822;10.152;2023-03-13T00:36:53;34.90;;;7.95;;
26512;SDS011;14186;53.822;10.152;2023-03-13T00:41:53;31.38;;;8.00;;
26512;SDS011;14186;53.822;10.152;2023-03-13T00:46:55;28.00;;;9.45;;
26512;SDS011;14186;53.822;10.152;2023-03-13T00:51:55;32.88;;;7.93;;
26512;SDS011;14186;53.822;10.152;2023-03-13T00:56:55;31.17;;;7.43;;
26512;SDS011;14186;53.822;10.152;2023-03-13T01:01:57;27.23;;;6.72;;
26512;SDS011;14186;53.822;10.152;2023-03-13T01:06:57;28.13;;;6.05;;
26512;SDS011;14186;53.822;10.152;2023-03-13T01:11:57;24.90;;;6.57;;
26512;SDS011;14186;53.822;10.152;2023-03-13T01:16:59;29.58;;;6.63;;
26512;SDS011;14186;53.822;10.152;2023-03-13T01:21:59;22.63;;;6.03;;
26512;SDS011;14186;53.822;10.152;2023-03-13T01:26:59;25.88;;;7.20;;
26512;SDS011;14186;53.822;10.152;2023-03-13T01:32:01;34.90;;;7.32;;
26512;SDS011;14186;53.822;10.152;2023-03-13T01:37:01;27.13;;;7.38;;
26512;SDS011;14186;53.822;10.152;2023-03-13T01:42:01;21.13;;;5.68;;
26512;SDS011;14186;53.822;10.152;2023-03-13T01:47:03;30.27;;;8.20;;
26512;SDS011;14186;53.822;10.152;2023-03-13T01:52:04;29.38;;;7.93;;
26512;SDS011;14186;53.822;10.152;2023-03-13T01:57:05;29.88;;;6.97;;
26512;SDS011;14186;53.822;10.152;2023-03-13T02:02:09;34.85;;;6.53;;
26512;SDS011;14186;53.822;10.152;2023-03-13T02:07:11;39.47;;;7.90;;
26512;SDS011;14186;53.822;10.152;2023-03-13T02:12:13;27.92;;;6.47;;
26512;SDS011;14186;53.822;10.152;2023-03-13T02:17:16;32.88;;;7.47;;
26512;SDS011;14186;53.822;10.152;2023-03-13T02:22:18;27.45;;;6.30;;
26512;SDS011;14186;53.822;10.152;2023-03-13T02:27:22;53.27;;;10.07;;
26512;SDS011;14186;53.822;10.152;2023-03-13T02:32:23;31.70;;;7.00;;
26512;SDS011;14186;53.822;10.152;2023-03-13T02:37:24;33.40;;;6.88;;
26512;SDS011;14186;53.822;10.152;2023-03-13T02:42:28;29.23;;;6.70;;
26512;SDS011;14186;53.822;10.152;2023-03-13T02:47:28;26.80;;;6.32;;
26512;SDS011;14186;53.822;10.152;2023-03-13T02:52:29;33.00;;;6.53;;
26512;SDS011;14186;53.822;10.152;2023-03-13T02:57:32;32.58;;;7.35;;
26512;SDS011;14186;53.822;10.152;2023-03-13T03:02:32;26.67;;;6.43;;
26512;SDS011;14186;53.822;10.152;2023-03-13T03:07:32;21.35;;;5.82;;
26512;SDS011;14186;53.822;10.152;2023-03-13T03:12:34;25.63;;;5.20;;
26512;SDS011;14186;53.822;10.152;2023-03-13T03:17:34;27.55;;;6.10;;
26512;SDS011;14186;53.822;10.152;2023-03-13T03:22:34;24.33;;;5.70;;
26512;SDS011;14186;53.822;10.152;2023-03-13T03:27:36;37.85;;;6.97;;
26512;SDS011;14186;53.822;10.152;2023-03-13T03:32:36;24.83;;;6.82;;
26512;SDS011;14186;53.822;10.152;2023-03-13T03:37:36;24.48;;;6.22;;
26512;SDS011;14186;53.822;10.152;2023-03-13T03:42:38;28.52;;;7.30;;
26512;SDS011;14186;53.822;10.152;2023-03-13T03:47:38;33.85;;;5.88;;
26512;SDS011;14186;53.822;10.152;2023-03-13T03:52:38;23.67;;;5.65;;
26512;SDS011;14186;53.822;10.152;2023-03-13T03:57:40;26.05;;;5.80;;
26512;SDS011;14186;53.822;10.152;2023-03-13T04:02:40;36.42;;;5.72;;
26512;SDS011;14186;53.822;10.152;2023-03-13T04:07:40;27.58;;;6.47;;
26512;SDS011;14186;53.822;10.152;2023-03-13T04:12:42;23.65;;;5.43;;
26512;SDS011;14186;53.822;10.152;2023-03-13T04:17:42;32.17;;;6.25;;
26512;SDS011;14186;53.822;10.152;2023-03-13T04:22:42;24.27;;;5.88;;
26512;SDS011;14186;53.822;10.152;2023-03-13T04:27:44;30.02;;;7.03;;
26512;SDS011;14186;53.822;10.152;2023-03-13T04:32:44;25.15;;;6.47;;
26512;SDS011;14186;53.822;10.152;2023-03-13T04:37:44;20.90;;;6.05;;
26512;SDS011;14186;53.822;10.152;2023-03-13T04:42:46;28.02;;;6.80;;
26512;SDS011;14186;53.822;10.152;2023-03-13T04:47:46;25.80;;;5.88;;
26512;SDS011;14186;53.822;10.152;2023-03-13T04:52:46;21.10;;;6.13;;
26512;SDS011;14186;53.822;10.152;2023-03-13T04:57:48;21.17;;;6.45;;
26512;SDS011;14186;53.822;10.152;2023-03-13T05:02:48;30.60;;;6.47;;
26512;SDS011;14186;53.822;10.152;2023-03-13T05:07:48;24.92;;;6.72;;
26512;SDS011;14186;53.822;10.152;2023-03-13T05:12:50;25.05;;;6.70;;
26512;SDS011;14186;53.822;10.152;2023-03-13T05:17:50;22.13;;;6.43;;
26512;SDS011;14186;53.822;10.152;2023-03-13T05:22:50;28.13;;;8.82;;
26512;SDS011;14186;53.822;10.152;2023-03-13T05:27:52;30.55;;;7.97;;
26512;SDS011;14186;53.822;10.152;2023-03-13T05:32:52;24.60;;;7.18;;
26512;SDS011;14186;53.822;10.152;2023-03-13T05:37:52;22.75;;;7.18;;
26512;SDS011;14186;53.822;10.152;2023-03-13T05:42:54;14.23;;;5.10;;
26512;SDS011;14186;53.822;10.152;2023-03-13T05:47:54;14.95;;;5.35;;
26512;SDS011;14186;53.822;10.152;2023-03-13T05:52:54;25.42;;;5.45;;
26512;SDS011;14186;53.822;10.152;2023-03-13T05:57:56;14.05;;;4.88;;
26512;SDS011;14186;53.822;10.152;2023-03-13T06:02:56;15.40;;;4.90;;
26512;SDS011;14186;53.822;10.152;2023-03-13T06:07:56;13.23;;;4.28;;
26512;SDS011;14186;53.822;10.152;2023-03-13T06:12:58;10.30;;;3.92;;
26512;SDS011;14186;53.822;10.152;2023-03-13T06:17:58;7.82;;;3.53;;
26512;SDS011;14186;53.822;10.152;2023-03-13T06:22:58;10.27;;;3.33;;
26512;SDS011;14186;53.822;10.152;2023-03-13T06:28:00;11.48;;;3.70;;
26512;SDS011;14186;53.822;10.152;2023-03-13T06:33:00;9.60;;;3.60;;
26512;SDS011;14186;53.822;10.152;2023-03-13T06:38:00;13.30;;;4.07;;
26512;SDS011;14186;53.822;10.152;2023-03-13T06:43:02;8.15;;;2.67;;
26512;SDS011;14186;53.822;10.152;2023-03-13T06:48:02;11.75;;;3.15;;
26512;SDS011;14186;53.822;10.152;2023-03-13T06:53:02;8.37;;;2.47;;
26512;SDS011;14186;53.822;10.152;2023-03-13T06:58:04;6.00;;;2.78;;
26512;SDS011;14186;53.822;10.152;2023-03-13T07:03:04;5.75;;;2.05;;
26512;SDS011;14186;53.822;10.152;2023-03-13T07:08:05;6.65;;;1.70;;
26512;SDS011;14186;53.822;10.152;2023-03-13T07:13:06;2.83;;;1.42;;
26512;SDS011;14186;53.822;10.152;2023-03-13T07:18:07;9.77;;;2.45;;
26512;SDS011;14186;53.822;10.152;2023-03-13T07:23:07;3.85;;;1.30;;
26512;SDS011;14186;53.822;10.152;2023-03-13T07:28:08;3.03;;;0.85;;
26512;SDS011;14186;53.822;10.152;2023-03-13T07:33:08;5.72;;;1.20;;
26512;SDS011;14186;53.822;10.152;2023-03-13T07:38:09;3.85;;;1.17;;
26512;SDS011;14186;53.822;10.152;2023-03-13T07:43:10;3.30;;;0.80;;
26512;SDS011;14186;53.822;10.152;2023-03-13T07:48:10;2.25;;;1.10;;
26512;SDS011;14186;53.822;10.152;2023-03-13T07:53:11;4.22;;;1.27;;
26512;SDS011;14186;53.822;10.152;2023-03-13T07:58:12;1.85;;;0.90;;
26512;SDS011;14186;53.822;10.152;2023-03-13T08:03:12;3.70;;;1.50;;
26512;SDS011;14186;53.822;10.152;2023-03-13T08:08:12;4.40;;;1.30;;
26512;SDS011;14186;53.822;10.152;2023-03-13T08:13:14;3.08;;;1.70;;
26512;SDS011;14186;53.822;10.152;2023-03-13T08:18:14;4.75;;;2.08;;
26512;SDS011;14186;53.822;10.152;2023-03-13T08:23:14;3.05;;;1.75;;
26512;SDS011;14186;53.822;10.152;2023-03-13T08:28:16;4.35;;;1.77;;
26512;SDS011;14186;53.822;10.152;2023-03-13T08:33:16;4.10;;;1.92;;
26512;SDS011;14186;53.822;10.152;2023-03-13T08:38:16;5.10;;;2.45;;
26512;SDS011;14186;53.822;10.152;2023-03-13T08:43:18;3.67;;;2.28;;
26512;SDS011;14186;53.822;10.152;2023-03-13T08:48:18;4.30;;;1.85;;
26512;SDS011;14186;53.822;10.152;2023-03-13T08:53:18;4.18;;;2.42;;
26512;SDS011;14186;53.822;10.152;2023-03-13T08:58:20;5.75;;;2.40;;
26512;SDS011;14186;53.822;10.152;2023-03-13T09:03:20;3.47;;;2.30;;
26512;SDS011;14186;53.822;10.152;2023-03-13T09:08:20;4.18;;;2.22;;
26512;SDS011;14186;53.822;10.152;2023-03-13T09:13:22;3.83;;;2.60;;
26512;SDS011;14186;53.822;10.152;2023-03-13T09:18:22;4.75;;;3.15;;
26512;SDS011;14186;53.822;10.152;2023-03-13T09:23:22;5.75;;;4.28;;
26512;SDS011;14186;53.822;10.152;2023-03-13T09:28:24;5.38;;;4.20;;
26512;SDS011;14186;53.822;10.152;2023-03-13T09:33:25;6.13;;;4.38;;
26512;SDS011;14186;53.822;10.152;2023-03-13T09:38:25;7.10;;;4.00;;
26512;SDS011;14186;53.822;10.152;2023-03-13T09:43:29;7.03;;;4.00;;
26512;SDS011;14186;53.822;10.152;2023-03-13T09:48:35;5.95;;;3.90;;
26512;SDS011;14186;53.822;10.152;2023-03-13T09:53:37;7.35;;;4.40;;
26512;SDS011;14186;53.822;10.152;2023-03-13T09:58:42;6.47;;;3.65;;
26512;SDS011;14186;53.822;10.152;2023-03-13T10:03:46;6.18;;;4.00;;
26512;SDS011;14186;53.822;10.152;2023-03-13T10:08:51;6.95;;;3.88;;
26512;SDS011;14186;53.822;10.152;2023-03-13T10:13:54;7.70;;;3.88;;
26512;SDS011;14186;53.822;10.152;2023-03-13T10:18:56;6.30;;;4.78;;
26512;SDS011;14186;53.822;10.152;2023-03-13T10:23:58;6.22;;;3.60;;
26512;SDS011;14186;53.822;10.152;2023-03-13T10:29:08;5.88;;;4.00;;
26512;SDS011;14186;53.822;10.152;2023-03-13T10:34:13;8.90;;;3.78;;
26512;SDS011;14186;53.822;10.152;2023-03-13T10:39:14;5.32;;;3.30;;
26512;SDS011;14186;53.822;10.152;2023-03-13T10:44:16;4.68;;;3.38;;
26512;SDS011;14186;53.822;10.152;2023-03-13T10:49:18;6.53;;;3.47;;
26512;SDS011;14186;53.822;10.152;2023-03-13T10:54:20;5.20;;;2.58;;
26512;SDS011;14186;53.822;10.152;2023-03-13T10:59:23;5.60;;;2.42;;
26512;SDS011;14186;53.822;10.152;2023-03-13T11:04:28;2.85;;;1.90;;
26512;SDS011;14186;53.822;10.152;2023-03-13T11:09:29;4.40;;;2.00;;
26512;SDS011;14186;53.822;10.152;2023-03-13T11:14:30;3.25;;;2.08;;
26512;SDS011;14186;53.822;10.152;2023-03-13T11:19:35;3.03;;;1.75;;
26512;SDS011;14186;53.822;10.152;2023-03-13T11:24:39;3.60;;;1.55;;
26512;SDS011;14186;53.822;10.152;2023-03-13T11:29:44;4.40;;;1.30;;
26512;SDS011;14186;53.822;10.152;2023-03-13T11:34:49;4.65;;;1.45;;
26512;SDS011;14186;53.822;10.152;2023-03-13T11:39:54;2.78;;;1.10;;
26512;SDS011;14186;53.822;10.152;2023-03-13T11:45:00;1.75;;;0.90;;
26512;SDS011;14186;53.822;10.152;2023-03-13T11:50:14;2.00;;;1.20;;
26512;SDS011;14186;53.822;10.152;2023-03-13T11:55:25;5.55;;;1.25;;
26512;SDS011;14186;53.822;10.152;2023-03-13T12:00:30;2.65;;;1.05;;
26512;SDS011;14186;53.822;10.152;2023-03-13T12:05:34;4.38;;;1.05;;
26512;SDS011;14186;53.822;10.152;2023-03-13T12:10:37;2.88;;;1.20;;
26512;SDS011;14186;53.822;10.152;2023-03-13T12:15:42;3.20;;;0.98;;
26512;SDS011;14186;53.822;10.152;2023-03-13T12:20:43;1.75;;;0.70;;
26512;SDS011;14186;53.822;10.152;2023-03-13T12:25:48;1.77;;;0.80;;
26512;SDS011;14186;53.822;10.152;2023-03-13T12:30:51;2.33;;;0.90;;
26512;SDS011;14186;53.822;10.152;2023-03-13T12:35:57;2.70;;;0.90;;
26512;SDS011;14186;53.822;10.152;2023-03-13T12:41:03;3.85;;;0.90;;
26512;SDS011;14186;53.822;10.152;2023-03-13T12:46:14;3.75;;;1.05;;
26512;SDS011;14186;53.822;10.152;2023-03-13T12:51:22;3.13;;;0.93;;
26512;SDS011;14186;53.822;10.152;2023-03-13T12:56:38;2.00;;;1.10;;
26512;SDS011;14186;53.822;10.152;2023-03-13T13:01:42;4.40;;;1.60;;
26512;SDS011;14186;53.822;10.152;2023-03-13T13:06:50;2.30;;;1.00;;
26512;SDS011;14186;53.822;10.152;2023-03-13T13:11:51;6.47;;;1.42;;
26512;SDS011;14186;53.822;10.152;2023-03-13T13:16:53;4.60;;;1.00;;
26512;SDS011;14186;53.822;10.152;2023-03-13T13:32:31;2.65;;;1.10;;
26512;SDS011;14186;53.822;10.152;2023-03-13T13:37:32;5.80;;;1.20;;
26512;SDS011;14186;53.822;10.152;2023-03-13T13:42:36;4.50;;;1.30;;
26512;SDS011;14186;53.822;10.152;2023-03-13T13:47:38;3.03;;;1.00;;
26512;SDS011;14186;53.822;10.152;2023-03-13T13:52:38;3.20;;;1.17;;
26512;SDS011;14186;53.822;10.152;2023-03-13T13:57:39;3.60;;;1.42;;
26512;SDS011;14186;53.822;10.152;2023-03-13T14:02:44;6.28;;;1.45;;
26512;SDS011;14186;53.822;10.152;2023-03-13T14:07:49;1.55;;;0.90;;
26512;SDS011;14186;53.822;10.152;2023-03-13T14:12:51;3.28;;;0.80;;
26512;SDS011;14186;53.822;10.152;2023-03-13T14:17:53;10.35;;;1.08;;
26512;SDS011;14186;53.822;10.152;2023-03-13T14:22:54;6.28;;;0.93;;
26512;SDS011;14186;53.822;10.152;2023-03-13T14:27:55;5.57;;;1.05;;
26512;SDS011;14186;53.822;10.152;2023-03-13T14:32:56;1.80;;;0.80;;
26512;SDS011;14186;53.822;10.152;2023-03-13T14:38:00;3.70;;;0.85;;
26512;SDS011;14186;53.822;10.152;2023-03-13T14:43:00;5.40;;;1.13;;
26512;SDS011;14186;53.822;10.152;2023-03-13T14:48:03;3.78;;;0.93;;
26512;SDS011;14186;53.822;10.152;2023-03-13T14:53:09;6.03;;;0.82;;
26512;SDS011;14186;53.822;10.152;2023-03-13T14:58:24;2.08;;;0.90;;
26512;SDS011;14186;53.822;10.152;2023-03-13T15:03:30;4.88;;;1.00;;
26512;SDS011;14186;53.822;10.152;2023-03-13T15:08:30;5.30;;;1.08;;
26512;SDS011;14186;53.822;10.152;2023-03-13T15:13:33;6.80;;;0.98;;
26512;SDS011;14186;53.822;10.152;2023-03-13T15:18:34;3.40;;;0.77;;
26512;SDS011;14186;53.822;10.152;2023-03-13T15:23:35;3.67;;;0.90;;
26512;SDS011;14186;53.822;10.152;2023-03-13T15:28:35;3.08;;;1.10;;
26512;SDS011;14186;53.822;10.152;2023-03-13T15:33:36;2.28;;;1.15;;
26512;SDS011;14186;53.822;10.152;2023-03-13T15:38:37;3.35;;;0.80;;
26512;SDS011;14186;53.822;10.152;2023-03-13T15:43:37;3.78;;;1.08;;
26512;SDS011;14186;53.822;10.152;2023-03-13T15:48:39;4.20;;;1.80;;
26512;SDS011;14186;53.822;10.152;2023-03-13T15:53:39;3.42;;;1.02;;
26512;SDS011;14186;53.822;10.152;2023-03-13T15:58:40;5.68;;;1.00;;
26512;SDS011;14186;53.822;10.152;2023-03-13T16:03:42;3.42;;;1.02;;
26512;SDS011;14186;53.822;10.152;2023-03-13T16:08:42;3.75;;;1.20;;
26512;SDS011;14186;53.822;10.152;2023-03-13T16:13:43;3.10;;;0.90;;
26512;SDS011;14186;53.822;10.152;2023-03-13T16:18:44;2.40;;;0.75;;
26512;SDS011;14186;53.822;10.152;2023-03-13T16:23:44;1.75;;;0.70;;
26512;SDS011;14186;53.822;10.152;2023-03-13T16:28:45;4.10;;;0.82;;
26512;SDS011;14186;53.822;10.152;2023-03-13T16:33:47;4.90;;;1.13;;
26512;SDS011;14186;53.822;10.152;2023-03-13T16:38:48;4.22;;;0.95;;
26512;SDS011;14186;53.822;10.152;2023-03-13T16:43:48;3.08;;;0.95;;
26512;SDS011;14186;53.822;10.152;2023-03-13T16:48:50;2.05;;;1.10;;
26512;SDS011;14186;53.822;10.152;2023-03-13T16:53:50;4.05;;;0.95;;
26512;SDS011;14186;53.822;10.152;2023-03-13T16:58:51;4.65;;;0.90;;
26512;SDS011;14186;53.822;10.152;2023-03-13T17:03:53;7.50;;;1.17;;
26512;SDS011;14186;53.822;10.152;2023-03-13T17:08:54;2.75;;;0.88;;
26512;SDS011;14186;53.822;10.152;2023-03-13T17:13:54;2.97;;;0.98;;
26512;SDS011;14186;53.822;10.152;2023-03-13T17:18:56;7.65;;;0.70;;
26512;SDS011;14186;53.822;10.152;2023-03-13T17:23:56;6.50;;;0.93;;
26512;SDS011;14186;53.822;10.152;2023-03-13T17:28:57;5.18;;;1.20;;
26512;SDS011;14186;53.822;10.152;2023-03-13T17:33:58;3.03;;;0.80;;
26512;SDS011;14186;53.822;10.152;2023-03-13T17:38:59;7.63;;;0.77;;
26512;SDS011;14186;53.822;10.152;2023-03-13T17:43:59;7.15;;;0.80;;
26512;SDS011;14186;53.822;10.152;2023-03-13T17:49:01;4.53;;;0.98;;
26512;SDS011;14186;53.822;10.152;2023-03-13T17:54:01;3.88;;;1.00;;
26512;SDS011;14186;53.822;10.152;2023-03-13T17:59:02;6.28;;;1.20;;
26512;SDS011;14186;53.822;10.152;2023-03-13T18:04:03;6.00;;;1.48;;
26512;SDS011;14186;53.822;10.152;2023-03-13T18:09:04;5.85;;;2.10;;
26512;SDS011;14186;53.822;10.152;2023-03-13T18:14:05;13.13;;;2.17;;
26512;SDS011;14186;53.822;10.152;2023-03-13T18:19:07;15.85;;;2.60;;
26512;SDS011;14186;53.822;10.152;2023-03-13T18:24:09;14.87;;;2.73;;
26512;SDS011;14186;53.822;10.152;2023-03-13T18:29:11;16.50;;;2.78;;
26512;SDS011;14186;53.822;10.152;2023-03-13T18:34:13;14.52;;;3.90;;
26512;SDS011;14186;53.822;10.152;2023-03-13T18:39:14;16.13;;;3.65;;
26512;SDS011;14186;53.822;10.152;2023-03-13T18:44:14;17.65;;;2.42;;
26512;SDS011;14186;53.822;10.152;2023-03-13T18:49:17;13.20;;;2.00;;
26512;SDS011;14186;53.822;10.152;2023-03-13T18:54:17;10.80;;;2.35;;
26512;SDS011;14186;53.822;10.152;2023-03-13T18:59:19;12.45;;;2.33;;
26512;SDS011;14186;53.822;10.152;2023-03-13T19:04:20;13.57;;;2.30;;
26512;SDS011;14186;53.822;10.152;2023-03-13T19:09:21;19.25;;;2.70;;
26512;SDS011;14186;53.822;10.152;2023-03-13T19:14:21;13.90;;;2.55;;
26512;SDS011;14186;53.822;10.152;2023-03-13T19:19:23;14.90;;;2.72;;
26512;SDS011;14186;53.822;10.152;2023-03-13T19:24:23;13.30;;;2.22;;
26512;SDS011;14186;53.822;10.152;2023-03-13T19:29:24;17.20;;;2.17;;
26512;SDS011;14186;53.822;10.152;2023-03-13T19:34:26;11.73;;;2.42;;
26512;SDS011;14186;53.822;10.152;2023-03-13T19:39:26;14.68;;;1.95;;
26512;SDS011;14186;53.822;10.152;2023-03-13T19:44:26;11.60;;;1.95;;
26512;SDS011;14186;53.822;10.152;2023-03-13T19:49:28;15.25;;;2.55;;
26512;SDS011;14186;53.822;10.152;2023-03-13T19:54:28;11.50;;;2.10;;
26512;SDS011;14186;53.822;10.152;2023-03-13T19:59:28;9.60;;;2.10;;
26512;SDS011;14186;53.822;10.152;2023-03-13T20:04:30;15.60;;;2.50;;
26512;SDS011;14186;53.822;10.152;2023-03-13T20:09:30;16.80;;;3.70;;
26512;SDS011;14186;53.822;10.152;2023-03-13T20:14:30;17.70;;;2.72;;
26512;SDS011;14186;53.822;10.152;2023-03-13T20:19:32;10.07;;;2.25;;
26512;SDS011;14186;53.822;10.152;2023-03-13T20:24:32;12.43;;;3.42;;
26512;SDS011;14186;53.822;10.152;2023-03-13T20:29:32;11.15;;;2.38;;
26512;SDS011;14186;53.822;10.152;2023-03-13T20:34:34;14.98;;;2.55;;
26512;SDS011;14186;53.822;10.152;2023-03-13T20:39:34;13.35;;;2.05;;
26512;SDS011;14186;53.822;10.152;2023-03-13T20:44:34;11.55;;;2.35;;
26512;SDS011;14186;53.822;10.152;2023-03-13T20:49:36;14.07;;;2.78;;
26512;SDS011;14186;53.822;10.152;2023-03-13T20:54:36;19.38;;;2.42;;
26512;SDS011;14186;53.822;10.152;2023-03-13T20:59:36;12.33;;;2.27;;
26512;SDS011;14186;53.822;10.152;2023-03-13T21:04:38;18.63;;;2.92;;
26512;SDS011;14186;53.822;10.152;2023-03-13T21:09:38;11.60;;;2.42;;
26512;SDS011;14186;53.822;10.152;2023-03-13T21:14:38;20.30;;;3.25;;
26512;SDS011;14186;53.822;10.152;2023-03-13T21:19:40;9.88;;;2.92;;
26512;SDS011;14186;53.822;10.152;2023-03-13T21:24:40;17.45;;;3.92;;
26512;SDS011;14186;53.822;10.152;2023-03-13T21:29:41;14.10;;;2.20;;
26512;SDS011;14186;53.822;10.152;2023-03-13T21:34:42;15.75;;;2.97;;
26512;SDS011;14186;53.822;10.152;2023-03-13T21:39:43;18.52;;;2.78;;
26512;SDS011;14186;53.822;10.152;2023-03-13T21:44:43;20.42;;;2.72;;
26512;SDS011;14186;53.822;10.152;2023-03-13T21:49:45;13.52;;;3.95;;
26512;SDS011;14186;53.822;10.152;2023-03-13T21:54:45;10.95;;;2.63;;
26512;SDS011;14186;53.822;10.152;2023-03-13T21:59:45;15.25;;;3.40;;
26512;SDS011;14186;53.822;10.152;2023-03-13T22:04:47;10.27;;;2.33;;
26512;SDS011;14186;53.822;10.152;2023-03-13T22:09:47;14.48;;;2.25;;
26512;SDS011;14186;53.822;10.152;2023-03-13T22:14:47;10.23;;;1.92;;
26512;SDS011;14186;53.822;10.152;2023-03-13T22:19:48;12.23;;;2.20;;
26512;SDS011;14186;53.822;10.152;2023-03-13T22:24:49;13.68;;;2.75;;
26512;SDS011;14186;53.822;10.152;2023-03-13T22:29:49;14.05;;;1.95;;
26512;SDS011;14186;53.822;10.152;2023-03-13T22:34:50;15.07;;;2.20;;
26512;SDS011;14186;53.822;10.152;2023-03-13T22:39:51;14.68;;;2.83;;
26512;SDS011;14186;53.822;10.152;2023-03-13T22:44:51;10.35;;;2.70;;
26512;SDS011;14186;53.822;10.152;2023-03-13T22:49:52;9.48;;;2.50;;
26512;SDS011;14186;53.822;10.152;2023-03-13T22:54:53;8.02;;;1.92;;
26512;SDS011;14186;53.822;10.152;2023-03-13T22:59:53;13.45;;;2.75;;
26512;SDS011;14186;53.822;10.152;2023-03-13T23:04:54;14.45;;;2.08;;
26512;SDS011;14186;53.822;10.152;2023-03-13T23:09:55;8.98;;;2.53;;
26512;SDS011;14186;53.822;10.152;2023-03-13T23:14:55;11.90;;;2.45;;
26512;SDS011;14186;53.822;10.152;2023-03-13T23:19:57;7.38;;;2.25;;
26512;SDS011;14186;53.822;10.152;2023-03-13T23:24:57;12.07;;;2.30;;
26512;SDS011;14186;53.822;10.152;2023-03-13T23:29:57;5.85;;;2.05;;
26512;SDS011;14186;53.822;10.152;2023-03-13T23:34:59;11.75;;;1.95;;
26512;SDS011;14186;53.822;10.152;2023-03-13T23:39:59;10.27;;;1.85;;
26512;SDS011;14186;53.822;10.152;2023-03-13T23:44:59;10.38;;;2.95;;
26512;SDS011;14186;53.822;10.152;2023-03-13T23:50:01;13.85;;;3.65;;
26512;SDS011;14186;53.822;10.152;2023-03-13T23:55:02;14.52;;;2.35;;
